sensor_id;sensor_type;location;lat;lon;timestamp;temperature;humidity
38464;DHT22;24243;51.956;5.902;2023-02-14T00:00:36;18.60;54.70
38464;DHT22;24243;51.956;5.902;2023-02-14T00:03:02;18.60;54.70
38464;DHT22;24243;51.956;5.902;2023-02-14T00:05:27;18.60;54.70
38464;DHT22;24243;51.956;5.902;2023-02-14T00:07:53;18.60;54.70
38464;DHT22;24243;51.956;5.902;2023-02-14T00:10:18;18.50;54.60
38464;DHT22;24243;51.956;5.902;2023-02-14T00:12:44;18.50;54.60
38464;DHT22;24243;51.956;5.902;2023-02-14T00:15:10;18.50;54.60
38464;DHT22;24243;51.956;5.902;2023-02-14T00:17:48;18.60;54.60
38464;DHT22;24243;51.956;5.902;2023-02-14T00:20:14;18.50;54.60
38464;DHT22;24243;51.956;5.902;2023-02-14T00:22:40;18.50;54.60
38464;DHT22;24243;51.956;5.902;2023-02-14T00:25:05;18.50;54.60
38464;DHT22;24243;51.956;5.902;2023-02-14T00:27:31;18.50;54.60
38464;DHT22;24243;51.956;5.902;2023-02-14T00:29:56;18.50;54.60
38464;DHT22;24243;51.956;5.902;2023-02-14T00:32:28;18.50;54.60
38464;DHT22;24243;51.956;5.902;2023-02-14T00:34:53;18.50;55.20
38464;DHT22;24243;51.956;5.902;2023-02-14T00:37:19;18.50;54.50
38464;DHT22;24243;51.956;5.902;2023-02-14T00:39:45;18.50;54.60
38464;DHT22;24243;51.956;5.902;2023-02-14T00:42:11;18.50;54.50
38464;DHT22;24243;51.956;5.902;2023-02-14T00:44:38;18.50;54.50
38464;DHT22;24243;51.956;5.902;2023-02-14T00:47:03;18.40;54.50
38464;DHT22;24243;51.956;5.902;2023-02-14T00:49:29;18.40;54.50
38464;DHT22;24243;51.956;5.902;2023-02-14T00:51:55;18.50;54.60
38464;DHT22;24243;51.956;5.902;2023-02-14T00:54:20;18.40;54.50
38464;DHT22;24243;51.956;5.902;2023-02-14T00:56:46;18.40;54.50
38464;DHT22;24243;51.956;5.902;2023-02-14T00:59:12;18.40;54.50
38464;DHT22;24243;51.956;5.902;2023-02-14T01:01:37;18.40;54.50
38464;DHT22;24243;51.956;5.902;2023-02-14T01:04:03;18.40;54.50
38464;DHT22;24243;51.956;5.902;2023-02-14T01:06:29;18.40;54.50
38464;DHT22;24243;51.956;5.902;2023-02-14T01:08:54;18.40;54.50
38464;DHT22;24243;51.956;5.902;2023-02-14T01:11:21;18.40;54.50
38464;DHT22;24243;51.956;5.902;2023-02-14T01:13:47;18.40;54.60
38464;DHT22;24243;51.956;5.902;2023-02-14T01:16:14;18.40;54.50
38464;DHT22;24243;51.956;5.902;2023-02-14T01:18:40;18.30;54.50
38464;DHT22;24243;51.956;5.902;2023-02-14T01:23:37;18.40;54.50
38464;DHT22;24243;51.956;5.902;2023-02-14T01:26:04;18.30;54.50
38464;DHT22;24243;51.956;5.902;2023-02-14T01:28:29;18.30;54.50
38464;DHT22;24243;51.956;5.902;2023-02-14T01:30:55;18.30;54.50
38464;DHT22;24243;51.956;5.902;2023-02-14T01:33:20;18.30;54.50
38464;DHT22;24243;51.956;5.902;2023-02-14T01:35:46;18.30;54.50
38464;DHT22;24243;51.956;5.902;2023-02-14T01:38:12;18.30;54.50
38464;DHT22;24243;51.956;5.902;2023-02-14T01:40:43;18.30;54.50
38464;DHT22;24243;51.956;5.902;2023-02-14T01:43:13;18.30;54.50
38464;DHT22;24243;51.956;5.902;2023-02-14T01:45:39;18.30;54.50
38464;DHT22;24243;51.956;5.902;2023-02-14T01:48:05;18.30;54.50
38464;DHT22;24243;51.956;5.902;2023-02-14T01:50:32;18.20;54.50
38464;DHT22;24243;51.956;5.902;2023-02-14T01:53:03;18.20;54.50
38464;DHT22;24243;51.956;5.902;2023-02-14T01:55:30;18.20;54.50
38464;DHT22;24243;51.956;5.902;2023-02-14T01:57:58;18.30;54.50
38464;DHT22;24243;51.956;5.902;2023-02-14T02:00:26;18.20;54.50
38464;DHT22;24243;51.956;5.902;2023-02-14T02:03:10;18.20;54.50
38464;DHT22;24243;51.956;5.902;2023-02-14T02:05:39;18.20;54.50
38464;DHT22;24243;51.956;5.902;2023-02-14T02:08:06;18.20;54.50
38464;DHT22;24243;51.956;5.902;2023-02-14T02:10:31;18.20;54.50
38464;DHT22;24243;51.956;5.902;2023-02-14T02:12:58;18.20;54.50
38464;DHT22;24243;51.956;5.902;2023-02-14T02:15:26;18.20;54.50
38464;DHT22;24243;51.956;5.902;2023-02-14T02:23:28;18.20;54.50
38464;DHT22;24243;51.956;5.902;2023-02-14T02:34:05;18.10;54.50
38464;DHT22;24243;51.956;5.902;2023-02-14T02:36:50;18.10;54.50
38464;DHT22;24243;51.956;5.902;2023-02-14T02:39:28;18.10;54.50
38464;DHT22;24243;51.956;5.902;2023-02-14T02:47:21;18.10;54.50
38464;DHT22;24243;51.956;5.902;2023-02-14T02:52:51;18.10;54.50
38464;DHT22;24243;51.956;5.902;2023-02-14T02:55:30;18.10;54.50
38464;DHT22;24243;51.956;5.902;2023-02-14T02:58:17;18.10;54.50
38464;DHT22;24243;51.956;5.902;2023-02-14T03:00:44;18.10;54.50
38464;DHT22;24243;51.956;5.902;2023-02-14T03:03:11;18.00;54.50
38464;DHT22;24243;51.956;5.902;2023-02-14T03:05:56;18.00;54.50
38464;DHT22;24243;51.956;5.902;2023-02-14T03:08:22;18.00;54.50
38464;DHT22;24243;51.956;5.902;2023-02-14T03:10:47;18.00;54.50
38464;DHT22;24243;51.956;5.902;2023-02-14T03:23:35;18.00;54.50
38464;DHT22;24243;51.956;5.902;2023-02-14T03:31:17;18.00;54.50
38464;DHT22;24243;51.956;5.902;2023-02-14T03:36:19;18.00;54.50
38464;DHT22;24243;51.956;5.902;2023-02-14T03:41:13;18.00;54.50
38464;DHT22;24243;51.956;5.902;2023-02-14T03:43:41;17.90;54.50
38464;DHT22;24243;51.956;5.902;2023-02-14T03:46:16;17.90;54.50
38464;DHT22;24243;51.956;5.902;2023-02-14T03:48:42;17.90;54.50
38464;DHT22;24243;51.956;5.902;2023-02-14T03:51:09;17.90;54.50
38464;DHT22;24243;51.956;5.902;2023-02-14T03:53:37;17.90;54.50
38464;DHT22;24243;51.956;5.902;2023-02-14T03:56:17;17.90;54.50
38464;DHT22;24243;51.956;5.902;2023-02-14T03:58:49;17.90;54.50
38464;DHT22;24243;51.956;5.902;2023-02-14T04:01:24;17.90;54.50
38464;DHT22;24243;51.956;5.902;2023-02-14T04:03:52;17.90;54.50
38464;DHT22;24243;51.956;5.902;2023-02-14T04:06:20;17.90;54.50
38464;DHT22;24243;51.956;5.902;2023-02-14T04:08:45;17.90;54.50
38464;DHT22;24243;51.956;5.902;2023-02-14T04:11:11;17.90;54.50
38464;DHT22;24243;51.956;5.902;2023-02-14T04:13:37;17.90;54.50
38464;DHT22;24243;51.956;5.902;2023-02-14T04:16:03;17.90;54.50
38464;DHT22;24243;51.956;5.902;2023-02-14T04:18:29;17.90;54.50
38464;DHT22;24243;51.956;5.902;2023-02-14T04:21:13;17.90;54.50
38464;DHT22;24243;51.956;5.902;2023-02-14T04:23:39;17.90;54.50
38464;DHT22;24243;51.956;5.902;2023-02-14T04:26:04;17.80;54.40
38464;DHT22;24243;51.956;5.902;2023-02-14T04:28:30;17.80;54.50
38464;DHT22;24243;51.956;5.902;2023-02-14T04:30:59;17.80;54.40
38464;DHT22;24243;51.956;5.902;2023-02-14T04:33:24;17.90;54.50
38464;DHT22;24243;51.956;5.902;2023-02-14T04:35:50;17.80;54.50
38464;DHT22;24243;51.956;5.902;2023-02-14T04:38:15;17.80;54.50
38464;DHT22;24243;51.956;5.902;2023-02-14T04:40:41;17.80;54.50
38464;DHT22;24243;51.956;5.902;2023-02-14T04:43:06;17.80;54.50
38464;DHT22;24243;51.956;5.902;2023-02-14T04:45:32;17.80;54.50
38464;DHT22;24243;51.956;5.902;2023-02-14T04:47:58;17.80;54.50
38464;DHT22;24243;51.956;5.902;2023-02-14T04:50:23;17.80;54.50
38464;DHT22;24243;51.956;5.902;2023-02-14T04:52:50;17.80;54.50
38464;DHT22;24243;51.956;5.902;2023-02-14T04:55:16;17.80;54.50
38464;DHT22;24243;51.956;5.902;2023-02-14T04:57:41;17.80;54.50
38464;DHT22;24243;51.956;5.902;2023-02-14T05:00:07;17.80;54.50
38464;DHT22;24243;51.956;5.902;2023-02-14T05:02:33;17.80;54.50
38464;DHT22;24243;51.956;5.902;2023-02-14T05:04:59;17.70;54.40
38464;DHT22;24243;51.956;5.902;2023-02-14T05:07:24;17.70;54.40
38464;DHT22;24243;51.956;5.902;2023-02-14T05:09:50;17.80;54.50
38464;DHT22;24243;51.956;5.902;2023-02-14T05:12:15;17.70;54.50
38464;DHT22;24243;51.956;5.902;2023-02-14T05:14:41;17.70;54.40
38464;DHT22;24243;51.956;5.902;2023-02-14T05:17:07;17.70;54.40
38464;DHT22;24243;51.956;5.902;2023-02-14T05:19:32;17.70;54.50
38464;DHT22;24243;51.956;5.902;2023-02-14T05:21:58;17.70;54.40
38464;DHT22;24243;51.956;5.902;2023-02-14T05:24:23;17.70;54.50
38464;DHT22;24243;51.956;5.902;2023-02-14T05:26:49;17.70;55.10
38464;DHT22;24243;51.956;5.902;2023-02-14T05:29:14;17.70;54.50
38464;DHT22;24243;51.956;5.902;2023-02-14T05:31:40;17.70;54.50
38464;DHT22;24243;51.956;5.902;2023-02-14T05:34:06;17.70;54.50
38464;DHT22;24243;51.956;5.902;2023-02-14T05:36:31;17.60;54.40
38464;DHT22;24243;51.956;5.902;2023-02-14T05:38:57;17.70;54.50
38464;DHT22;24243;51.956;5.902;2023-02-14T05:41:22;17.60;54.40
38464;DHT22;24243;51.956;5.902;2023-02-14T05:43:48;17.60;54.40
38464;DHT22;24243;51.956;5.902;2023-02-14T05:46:13;17.70;54.50
38464;DHT22;24243;51.956;5.902;2023-02-14T05:48:39;17.70;54.50
38464;DHT22;24243;51.956;5.902;2023-02-14T05:51:05;17.70;54.50
38464;DHT22;24243;51.956;5.902;2023-02-14T05:53:31;17.70;54.50
38464;DHT22;24243;51.956;5.902;2023-02-14T05:55:57;17.60;54.40
38464;DHT22;24243;51.956;5.902;2023-02-14T05:58:23;17.60;54.50
38464;DHT22;24243;51.956;5.902;2023-02-14T06:00:48;17.60;54.50
38464;DHT22;24243;51.956;5.902;2023-02-14T06:03:14;17.60;54.40
38464;DHT22;24243;51.956;5.902;2023-02-14T06:05:39;17.60;54.40
38464;DHT22;24243;51.956;5.902;2023-02-14T06:08:05;17.60;54.40
38464;DHT22;24243;51.956;5.902;2023-02-14T06:10:30;17.60;54.40
38464;DHT22;24243;51.956;5.902;2023-02-14T06:12:56;17.60;54.50
38464;DHT22;24243;51.956;5.902;2023-02-14T06:15:22;17.60;54.40
38464;DHT22;24243;51.956;5.902;2023-02-14T06:17:51;17.60;54.40
38464;DHT22;24243;51.956;5.902;2023-02-14T06:20:17;17.60;54.50
38464;DHT22;24243;51.956;5.902;2023-02-14T06:22:43;17.60;54.50
38464;DHT22;24243;51.956;5.902;2023-02-14T06:25:08;17.60;55.10
38464;DHT22;24243;51.956;5.902;2023-02-14T06:27:34;17.60;54.50
38464;DHT22;24243;51.956;5.902;2023-02-14T06:29:59;17.60;54.50
38464;DHT22;24243;51.956;5.902;2023-02-14T06:32:25;17.60;54.50
38464;DHT22;24243;51.956;5.902;2023-02-14T06:34:50;17.60;54.40
38464;DHT22;24243;51.956;5.902;2023-02-14T06:37:16;17.60;54.40
38464;DHT22;24243;51.956;5.902;2023-02-14T06:39:42;17.60;54.40
38464;DHT22;24243;51.956;5.902;2023-02-14T06:42:07;17.60;54.30
38464;DHT22;24243;51.956;5.902;2023-02-14T06:44:33;17.60;54.30
38464;DHT22;24243;51.956;5.902;2023-02-14T06:46:58;17.60;54.30
38464;DHT22;24243;51.956;5.902;2023-02-14T06:49:24;17.60;54.30
38464;DHT22;24243;51.956;5.902;2023-02-14T06:51:50;17.60;54.30
38464;DHT22;24243;51.956;5.902;2023-02-14T06:54:15;17.60;54.30
38464;DHT22;24243;51.956;5.902;2023-02-14T06:56:41;17.60;54.30
38464;DHT22;24243;51.956;5.902;2023-02-14T06:59:06;17.60;54.30
38464;DHT22;24243;51.956;5.902;2023-02-14T07:01:32;17.60;54.30
38464;DHT22;24243;51.956;5.902;2023-02-14T07:03:58;17.60;54.30
38464;DHT22;24243;51.956;5.902;2023-02-14T07:06:23;17.60;54.30
38464;DHT22;24243;51.956;5.902;2023-02-14T07:08:49;17.60;54.30
38464;DHT22;24243;51.956;5.902;2023-02-14T07:11:14;17.60;54.30
38464;DHT22;24243;51.956;5.902;2023-02-14T07:13:40;17.60;54.30
38464;DHT22;24243;51.956;5.902;2023-02-14T07:16:08;17.60;54.30
38464;DHT22;24243;51.956;5.902;2023-02-14T07:18:33;17.50;54.30
38464;DHT22;24243;51.956;5.902;2023-02-14T07:20:59;17.60;54.40
38464;DHT22;24243;51.956;5.902;2023-02-14T07:23:25;17.50;54.30
38464;DHT22;24243;51.956;5.902;2023-02-14T07:25:50;17.50;54.30
38464;DHT22;24243;51.956;5.902;2023-02-14T07:28:16;17.50;54.30
38464;DHT22;24243;51.956;5.902;2023-02-14T07:30:41;17.50;54.30
38464;DHT22;24243;51.956;5.902;2023-02-14T07:33:07;17.50;54.30
38464;DHT22;24243;51.956;5.902;2023-02-14T07:35:33;17.50;54.30
38464;DHT22;24243;51.956;5.902;2023-02-14T07:37:59;17.50;54.30
38464;DHT22;24243;51.956;5.902;2023-02-14T07:40:25;17.50;54.30
38464;DHT22;24243;51.956;5.902;2023-02-14T07:42:54;17.50;54.30
38464;DHT22;24243;51.956;5.902;2023-02-14T07:45:21;17.50;54.30
38464;DHT22;24243;51.956;5.902;2023-02-14T07:47:47;17.50;54.20
38464;DHT22;24243;51.956;5.902;2023-02-14T07:50:14;17.50;54.20
38464;DHT22;24243;51.956;5.902;2023-02-14T07:52:40;17.60;54.30
38464;DHT22;24243;51.956;5.902;2023-02-14T07:55:05;17.60;54.20
38464;DHT22;24243;51.956;5.902;2023-02-14T07:57:32;17.60;54.10
38464;DHT22;24243;51.956;5.902;2023-02-14T07:59:57;17.60;54.10
38464;DHT22;24243;51.956;5.902;2023-02-14T08:02:23;17.60;54.00
38464;DHT22;24243;51.956;5.902;2023-02-14T08:04:48;17.70;54.00
38464;DHT22;24243;51.956;5.902;2023-02-14T08:07:14;17.70;53.90
38464;DHT22;24243;51.956;5.902;2023-02-14T08:09:39;17.70;53.90
38464;DHT22;24243;51.956;5.902;2023-02-14T08:12:05;17.80;53.80
38464;DHT22;24243;51.956;5.902;2023-02-14T08:14:49;17.80;53.70
38464;DHT22;24243;51.956;5.902;2023-02-14T08:17:15;17.90;53.70
38464;DHT22;24243;51.956;5.902;2023-02-14T08:19:40;18.00;53.60
38464;DHT22;24243;51.956;5.902;2023-02-14T08:22:06;18.00;53.50
38464;DHT22;24243;51.956;5.902;2023-02-14T08:24:32;18.00;53.50
38464;DHT22;24243;51.956;5.902;2023-02-14T08:26:58;18.10;53.50
38464;DHT22;24243;51.956;5.902;2023-02-14T08:29:23;18.10;53.40
38464;DHT22;24243;51.956;5.902;2023-02-14T08:31:49;18.10;53.40
38464;DHT22;24243;51.956;5.902;2023-02-14T08:34:15;18.20;53.30
38464;DHT22;24243;51.956;5.902;2023-02-14T08:36:41;18.20;53.30
38464;DHT22;24243;51.956;5.902;2023-02-14T08:39:06;18.30;53.30
38464;DHT22;24243;51.956;5.902;2023-02-14T08:41:32;18.30;53.20
38464;DHT22;24243;51.956;5.902;2023-02-14T08:43:58;18.40;53.20
38464;DHT22;24243;51.956;5.902;2023-02-14T08:46:24;18.40;53.10
38464;DHT22;24243;51.956;5.902;2023-02-14T08:48:49;18.50;53.10
38464;DHT22;24243;51.956;5.902;2023-02-14T08:51:16;18.50;53.10
38464;DHT22;24243;51.956;5.902;2023-02-14T08:53:42;18.50;53.00
38464;DHT22;24243;51.956;5.902;2023-02-14T08:56:08;18.50;53.00
38464;DHT22;24243;51.956;5.902;2023-02-14T08:58:34;18.60;53.00
38464;DHT22;24243;51.956;5.902;2023-02-14T09:01:00;18.70;53.00
38464;DHT22;24243;51.956;5.902;2023-02-14T09:03:26;18.70;53.00
38464;DHT22;24243;51.956;5.902;2023-02-14T09:05:51;18.70;52.90
38464;DHT22;24243;51.956;5.902;2023-02-14T09:08:17;18.70;52.80
38464;DHT22;24243;51.956;5.902;2023-02-14T09:10:43;18.80;53.40
38464;DHT22;24243;51.956;5.902;2023-02-14T09:13:08;18.90;52.80
38464;DHT22;24243;51.956;5.902;2023-02-14T09:15:34;18.90;52.80
38464;DHT22;24243;51.956;5.902;2023-02-14T09:17:59;19.00;52.70
38464;DHT22;24243;51.956;5.902;2023-02-14T09:20:25;19.00;52.70
38464;DHT22;24243;51.956;5.902;2023-02-14T09:22:53;19.10;52.70
38464;DHT22;24243;51.956;5.902;2023-02-14T09:25:19;19.10;52.60
38464;DHT22;24243;51.956;5.902;2023-02-14T09:27:45;19.10;52.60
38464;DHT22;24243;51.956;5.902;2023-02-14T09:30:11;19.20;52.60
38464;DHT22;24243;51.956;5.902;2023-02-14T09:32:37;19.20;52.50
38464;DHT22;24243;51.956;5.902;2023-02-14T09:35:02;19.30;52.50
38464;DHT22;24243;51.956;5.902;2023-02-14T09:37:28;19.30;52.50
38464;DHT22;24243;51.956;5.902;2023-02-14T09:40:13;19.40;52.50
38464;DHT22;24243;51.956;5.902;2023-02-14T09:42:41;19.40;52.50
38464;DHT22;24243;51.956;5.902;2023-02-14T09:45:13;19.40;52.40
38464;DHT22;24243;51.956;5.902;2023-02-14T09:47:44;19.50;52.50
38464;DHT22;24243;51.956;5.902;2023-02-14T09:50:21;19.50;53.10
38464;DHT22;24243;51.956;5.902;2023-02-14T09:52:49;19.60;52.30
38464;DHT22;24243;51.956;5.902;2023-02-14T09:55:16;19.70;52.30
38464;DHT22;24243;51.956;5.902;2023-02-14T09:57:44;19.70;52.20
38464;DHT22;24243;51.956;5.902;2023-02-14T10:00:14;19.80;52.20
38464;DHT22;24243;51.956;5.902;2023-02-14T10:15:41;20.00;52.10
38464;DHT22;24243;51.956;5.902;2023-02-14T10:18:20;20.10;52.10
38464;DHT22;24243;51.956;5.902;2023-02-14T10:20:48;20.10;52.10
38464;DHT22;24243;51.956;5.902;2023-02-14T10:28:32;20.30;52.10
38464;DHT22;24243;51.956;5.902;2023-02-14T10:31:04;20.30;52.10
38464;DHT22;24243;51.956;5.902;2023-02-14T10:33:35;20.30;52.00
38464;DHT22;24243;51.956;5.902;2023-02-14T10:36:04;20.40;52.00
38464;DHT22;24243;51.956;5.902;2023-02-14T10:41:39;20.50;52.00
38464;DHT22;24243;51.956;5.902;2023-02-14T10:46:54;20.60;52.00
38464;DHT22;24243;51.956;5.902;2023-02-14T10:49:24;20.60;52.00
38464;DHT22;24243;51.956;5.902;2023-02-14T10:51:54;20.60;51.90
38464;DHT22;24243;51.956;5.902;2023-02-14T10:54:23;20.70;51.90
38464;DHT22;24243;51.956;5.902;2023-02-14T10:56:52;20.70;51.90
38464;DHT22;24243;51.956;5.902;2023-02-14T11:01:46;20.80;51.90
38464;DHT22;24243;51.956;5.902;2023-02-14T11:04:13;20.90;51.90
38464;DHT22;24243;51.956;5.902;2023-02-14T11:06:40;20.90;51.90
38464;DHT22;24243;51.956;5.902;2023-02-14T11:09:05;21.00;51.90
38464;DHT22;24243;51.956;5.902;2023-02-14T11:14:17;21.00;51.90
38464;DHT22;24243;51.956;5.902;2023-02-14T11:16:43;21.00;51.90
38464;DHT22;24243;51.956;5.902;2023-02-14T11:21:41;21.00;51.90
38464;DHT22;24243;51.956;5.902;2023-02-14T11:26:52;21.10;51.90
38464;DHT22;24243;51.956;5.902;2023-02-14T11:29:24;21.10;51.90
38464;DHT22;24243;51.956;5.902;2023-02-14T11:31:50;21.20;52.00
38464;DHT22;24243;51.956;5.902;2023-02-14T11:34:29;21.20;52.00
38464;DHT22;24243;51.956;5.902;2023-02-14T11:36:55;21.20;51.90
38464;DHT22;24243;51.956;5.902;2023-02-14T11:41:50;21.30;52.60
38464;DHT22;24243;51.956;5.902;2023-02-14T11:44:27;21.30;52.00
38464;DHT22;24243;51.956;5.902;2023-02-14T11:46:54;21.30;52.00
38464;DHT22;24243;51.956;5.902;2023-02-14T11:49:31;21.30;52.00
38464;DHT22;24243;51.956;5.902;2023-02-14T11:51:58;21.30;52.00
38464;DHT22;24243;51.956;5.902;2023-02-14T11:54:28;21.30;52.00
38464;DHT22;24243;51.956;5.902;2023-02-14T11:57:18;21.40;52.00
38464;DHT22;24243;51.956;5.902;2023-02-14T11:59:41;21.30;52.00
38464;DHT22;24243;51.956;5.902;2023-02-14T12:04:56;21.40;52.00
38464;DHT22;24243;51.956;5.902;2023-02-14T12:12:48;21.40;52.00
38464;DHT22;24243;51.956;5.902;2023-02-14T12:20:55;21.50;52.10
38464;DHT22;24243;51.956;5.902;2023-02-14T12:23:26;21.50;52.10
38464;DHT22;24243;51.956;5.902;2023-02-14T12:28:40;21.50;52.10
38464;DHT22;24243;51.956;5.902;2023-02-14T12:31:08;21.50;52.10
38464;DHT22;24243;51.956;5.902;2023-02-14T12:33:34;21.50;52.10
38464;DHT22;24243;51.956;5.902;2023-02-14T12:36:02;21.60;52.10
38464;DHT22;24243;51.956;5.902;2023-02-14T12:43:46;21.60;52.00
38464;DHT22;24243;51.956;5.902;2023-02-14T12:51:17;21.60;52.20
38464;DHT22;24243;51.956;5.902;2023-02-14T13:01:46;21.60;52.30
38464;DHT22;24243;51.956;5.902;2023-02-14T13:09:33;21.60;52.30
38464;DHT22;24243;51.956;5.902;2023-02-14T13:22:08;21.50;52.50
38464;DHT22;24243;51.956;5.902;2023-02-14T13:24:40;21.50;52.50
38464;DHT22;24243;51.956;5.902;2023-02-14T13:27:07;21.50;52.50
38464;DHT22;24243;51.956;5.902;2023-02-14T13:29:47;21.50;52.60
38464;DHT22;24243;51.956;5.902;2023-02-14T13:32:14;21.50;52.60
38464;DHT22;24243;51.956;5.902;2023-02-14T13:34:42;21.50;52.60
38464;DHT22;24243;51.956;5.902;2023-02-14T13:37:10;21.40;52.60
38464;DHT22;24243;51.956;5.902;2023-02-14T13:39:37;21.40;52.70
38464;DHT22;24243;51.956;5.902;2023-02-14T13:42:04;21.40;52.70
38464;DHT22;24243;51.956;5.902;2023-02-14T13:47:18;21.40;52.70
38464;DHT22;24243;51.956;5.902;2023-02-14T13:49:48;21.40;52.70
38464;DHT22;24243;51.956;5.902;2023-02-14T13:52:19;21.30;52.70
38464;DHT22;24243;51.956;5.902;2023-02-14T13:55:05;21.30;52.80
38464;DHT22;24243;51.956;5.902;2023-02-14T13:57:34;21.30;52.90
38464;DHT22;24243;51.956;5.902;2023-02-14T14:02:45;21.20;52.90
38464;DHT22;24243;51.956;5.902;2023-02-14T14:10:56;21.20;53.00
38464;DHT22;24243;51.956;5.902;2023-02-14T14:16:47;21.10;53.00
38464;DHT22;24243;51.956;5.902;2023-02-14T14:18:55;21.00;53.10
38464;DHT22;24243;51.956;5.902;2023-02-14T14:21:25;21.00;53.10
38464;DHT22;24243;51.956;5.902;2023-02-14T14:26:36;20.90;53.20
38464;DHT22;24243;51.956;5.902;2023-02-14T14:29:38;20.90;53.30
38464;DHT22;24243;51.956;5.902;2023-02-14T14:31:55;20.80;53.30
38464;DHT22;24243;51.956;5.902;2023-02-14T14:34:22;20.80;53.30
38464;DHT22;24243;51.956;5.902;2023-02-14T14:36:50;20.80;53.30
38464;DHT22;24243;51.956;5.902;2023-02-14T14:39:28;20.80;53.40
38464;DHT22;24243;51.956;5.902;2023-02-14T14:41:55;20.70;53.40
38464;DHT22;24243;51.956;5.902;2023-02-14T14:44:20;20.70;53.40
38464;DHT22;24243;51.956;5.902;2023-02-14T14:46:46;20.70;53.50
38464;DHT22;24243;51.956;5.902;2023-02-14T14:49:13;20.60;53.50
38464;DHT22;24243;51.956;5.902;2023-02-14T14:51:40;20.60;53.50
38464;DHT22;24243;51.956;5.902;2023-02-14T14:54:12;20.50;53.50
38464;DHT22;24243;51.956;5.902;2023-02-14T14:56:51;20.50;53.50
38464;DHT22;24243;51.956;5.902;2023-02-14T15:01:43;20.40;53.60
38464;DHT22;24243;51.956;5.902;2023-02-14T15:04:10;20.40;53.60
38464;DHT22;24243;51.956;5.902;2023-02-14T15:06:36;20.40;53.60
38464;DHT22;24243;51.956;5.902;2023-02-14T15:09:10;20.30;53.60
38464;DHT22;24243;51.956;5.902;2023-02-14T15:11:36;20.30;53.60
38464;DHT22;24243;51.956;5.902;2023-02-14T15:14:21;20.30;53.60
38464;DHT22;24243;51.956;5.902;2023-02-14T15:16:52;20.30;53.70
38464;DHT22;24243;51.956;5.902;2023-02-14T15:21:44;20.20;53.60
38464;DHT22;24243;51.956;5.902;2023-02-14T15:24:13;20.20;53.70
38464;DHT22;24243;51.956;5.902;2023-02-14T15:26:41;20.20;53.70
38464;DHT22;24243;51.956;5.902;2023-02-14T15:29:20;20.10;53.70
38464;DHT22;24243;51.956;5.902;2023-02-14T15:31:46;20.10;53.70
38464;DHT22;24243;51.956;5.902;2023-02-14T15:34:12;20.00;53.60
38464;DHT22;24243;51.956;5.902;2023-02-14T15:36:38;20.00;53.60
38464;DHT22;24243;51.956;5.902;2023-02-14T15:39:04;20.00;53.70
38464;DHT22;24243;51.956;5.902;2023-02-14T15:41:30;20.00;53.70
38464;DHT22;24243;51.956;5.902;2023-02-14T15:43:56;20.00;53.70
38464;DHT22;24243;51.956;5.902;2023-02-14T15:48:54;19.90;53.60
38464;DHT22;24243;51.956;5.902;2023-02-14T15:51:24;19.90;53.70
38464;DHT22;24243;51.956;5.902;2023-02-14T15:56:27;19.80;53.60
38464;DHT22;24243;51.956;5.902;2023-02-14T15:58:57;19.80;53.70
38464;DHT22;24243;51.956;5.902;2023-02-14T16:01:23;19.80;53.70
38464;DHT22;24243;51.956;5.902;2023-02-14T16:03:52;19.70;53.60
38464;DHT22;24243;51.956;5.902;2023-02-14T16:06:29;19.80;53.70
38464;DHT22;24243;51.956;5.902;2023-02-14T16:08:55;19.70;53.60
38464;DHT22;24243;51.956;5.902;2023-02-14T16:11:32;19.70;53.70
38464;DHT22;24243;51.956;5.902;2023-02-14T16:17:03;19.70;53.60
38464;DHT22;24243;51.956;5.902;2023-02-14T16:22:01;19.60;53.60
38464;DHT22;24243;51.956;5.902;2023-02-14T16:24:26;19.60;53.60
38464;DHT22;24243;51.956;5.902;2023-02-14T16:26:53;19.60;53.60
38464;DHT22;24243;51.956;5.902;2023-02-14T16:29:19;19.60;53.60
38464;DHT22;24243;51.956;5.902;2023-02-14T16:31:48;19.60;53.60
38464;DHT22;24243;51.956;5.902;2023-02-14T16:34:15;19.50;53.50
38464;DHT22;24243;51.956;5.902;2023-02-14T16:36:41;19.50;53.50
38464;DHT22;24243;51.956;5.902;2023-02-14T16:39:17;19.50;53.50
38464;DHT22;24243;51.956;5.902;2023-02-14T16:41:43;19.50;53.50
38464;DHT22;24243;51.956;5.902;2023-02-14T16:44:13;19.50;53.50
38464;DHT22;24243;51.956;5.902;2023-02-14T16:46:39;19.50;53.50
38464;DHT22;24243;51.956;5.902;2023-02-14T16:49:05;19.50;53.40
38464;DHT22;24243;51.956;5.902;2023-02-14T16:51:32;19.50;53.40
38464;DHT22;24243;51.956;5.902;2023-02-14T16:53:58;19.50;53.30
38464;DHT22;24243;51.956;5.902;2023-02-14T16:56:39;19.50;53.30
38464;DHT22;24243;51.956;5.902;2023-02-14T16:59:05;19.50;53.20
38464;DHT22;24243;51.956;5.902;2023-02-14T17:01:31;19.50;53.80
38464;DHT22;24243;51.956;5.902;2023-02-14T17:03:57;19.50;53.20
38464;DHT22;24243;51.956;5.902;2023-02-14T17:06:23;19.50;53.20
38464;DHT22;24243;51.956;5.902;2023-02-14T17:08:51;19.50;53.20
38464;DHT22;24243;51.956;5.902;2023-02-14T17:11:18;19.40;53.20
38464;DHT22;24243;51.956;5.902;2023-02-14T17:13:44;19.50;53.20
38464;DHT22;24243;51.956;5.902;2023-02-14T17:16:11;19.40;53.20
38464;DHT22;24243;51.956;5.902;2023-02-14T17:18:39;19.50;53.20
38464;DHT22;24243;51.956;5.902;2023-02-14T17:21:07;19.50;53.20
38464;DHT22;24243;51.956;5.902;2023-02-14T17:23:32;19.50;53.20
38464;DHT22;24243;51.956;5.902;2023-02-14T17:25:58;19.50;53.20
38464;DHT22;24243;51.956;5.902;2023-02-14T17:28:23;19.50;53.10
38464;DHT22;24243;51.956;5.902;2023-02-14T17:30:51;19.50;53.10
38464;DHT22;24243;51.956;5.902;2023-02-14T17:33:16;19.50;53.10
38464;DHT22;24243;51.956;5.902;2023-02-14T17:35:42;19.50;53.00
38464;DHT22;24243;51.956;5.902;2023-02-14T17:38:07;19.50;53.00
38464;DHT22;24243;51.956;5.902;2023-02-14T17:40:33;19.50;52.90
38464;DHT22;24243;51.956;5.902;2023-02-14T17:42:59;19.50;52.90
38464;DHT22;24243;51.956;5.902;2023-02-14T17:45:25;19.50;52.90
38464;DHT22;24243;51.956;5.902;2023-02-14T17:47:50;19.60;52.90
38464;DHT22;24243;51.956;5.902;2023-02-14T17:50:16;19.60;52.80
38464;DHT22;24243;51.956;5.902;2023-02-14T17:52:42;19.60;52.80
38464;DHT22;24243;51.956;5.902;2023-02-14T17:55:08;19.60;52.70
38464;DHT22;24243;51.956;5.902;2023-02-14T17:57:34;19.70;52.70
38464;DHT22;24243;51.956;5.902;2023-02-14T18:00:00;19.70;52.70
38464;DHT22;24243;51.956;5.902;2023-02-14T18:02:26;19.70;52.70
38464;DHT22;24243;51.956;5.902;2023-02-14T18:04:52;19.70;52.70
38464;DHT22;24243;51.956;5.902;2023-02-14T18:07:19;19.70;52.70
38464;DHT22;24243;51.956;5.902;2023-02-14T18:09:45;19.70;52.80
38464;DHT22;24243;51.956;5.902;2023-02-14T18:12:10;19.70;52.80
38464;DHT22;24243;51.956;5.902;2023-02-14T18:14:36;19.60;52.80
38464;DHT22;24243;51.956;5.902;2023-02-14T18:17:02;19.60;52.90